sensor_id;sensor_type;location;lat;lon;timestamp;temperature;humidity
68801;SHT31;55784;50.734;7.086;2023-04-24T00:00:54;12.57;77.74
68801;SHT31;55784;50.734;7.086;2023-04-24T00:03:24;12.60;77.70
68801;SHT31;55784;50.734;7.086;2023-04-24T00:05:50;12.56;77.60
68801;SHT31;55784;50.734;7.086;2023-04-24T00:08:16;12.57;77.47
68801;SHT31;55784;50.734;7.086;2023-04-24T00:10:42;12.52;77.65
68801;SHT31;55784;50.734;7.086;2023-04-24T00:13:07;12.42;77.67
68801;SHT31;55784;50.734;7.086;2023-04-24T00:15:33;12.36;77.79
68801;SHT31;55784;50.734;7.086;2023-04-24T00:17:58;12.33;77.84
68801;SHT31;55784;50.734;7.086;2023-04-24T00:20:23;12.30;78.10
68801;SHT31;55784;50.734;7.086;2023-04-24T00:22:49;12.34;78.03
68801;SHT31;55784;50.734;7.086;2023-04-24T00:25:14;12.39;77.96
68801;SHT31;55784;50.734;7.086;2023-04-24T00:27:39;12.42;77.70
68801;SHT31;55784;50.734;7.086;2023-04-24T00:30:05;12.40;77.76
68801;SHT31;55784;50.734;7.086;2023-04-24T00:32:31;12.39;77.87
68801;SHT31;55784;50.734;7.086;2023-04-24T00:34:56;12.39;78.23
68801;SHT31;55784;50.734;7.086;2023-04-24T00:37:21;12.44;78.14
68801;SHT31;55784;50.734;7.086;2023-04-24T00:39:47;12.43;78.04
68801;SHT31;55784;50.734;7.086;2023-04-24T00:42:12;12.46;77.65
68801;SHT31;55784;50.734;7.086;2023-04-24T00:44:38;12.52;77.49
68801;SHT31;55784;50.734;7.086;2023-04-24T00:47:03;12.53;77.56
68801;SHT31;55784;50.734;7.086;2023-04-24T00:49:29;12.59;77.58
68801;SHT31;55784;50.734;7.086;2023-04-24T00:51:54;12.60;77.78
68801;SHT31;55784;50.734;7.086;2023-04-24T00:54:20;12.63;77.54
68801;SHT31;55784;50.734;7.086;2023-04-24T00:56:45;12.60;77.39
68801;SHT31;55784;50.734;7.086;2023-04-24T00:59:12;12.59;77.42
68801;SHT31;55784;50.734;7.086;2023-04-24T01:01:38;12.59;77.49
68801;SHT31;55784;50.734;7.086;2023-04-24T01:04:07;12.63;77.59
68801;SHT31;55784;50.734;7.086;2023-04-24T01:06:33;12.61;77.48
68801;SHT31;55784;50.734;7.086;2023-04-24T01:08:59;12.63;77.58
68801;SHT31;55784;50.734;7.086;2023-04-24T01:11:25;12.61;77.75
68801;SHT31;55784;50.734;7.086;2023-04-24T01:13:51;12.60;77.63
68801;SHT31;55784;50.734;7.086;2023-04-24T01:16:16;12.66;77.52
68801;SHT31;55784;50.734;7.086;2023-04-24T01:18:43;12.64;77.49
68801;SHT31;55784;50.734;7.086;2023-04-24T01:21:09;12.68;77.25
68801;SHT31;55784;50.734;7.086;2023-04-24T01:23:35;12.67;77.49
68801;SHT31;55784;50.734;7.086;2023-04-24T01:26:00;12.59;77.60
68801;SHT31;55784;50.734;7.086;2023-04-24T01:28:26;12.50;77.83
68801;SHT31;55784;50.734;7.086;2023-04-24T01:30:52;12.50;77.83
68801;SHT31;55784;50.734;7.086;2023-04-24T01:33:18;12.49;77.18
68801;SHT31;55784;50.734;7.086;2023-04-24T01:35:43;12.23;76.38
68801;SHT31;55784;50.734;7.086;2023-04-24T01:38:08;12.16;76.50
68801;SHT31;55784;50.734;7.086;2023-04-24T01:40:34;12.11;76.02
68801;SHT31;55784;50.734;7.086;2023-04-24T01:43:00;12.05;75.16
68801;SHT31;55784;50.734;7.086;2023-04-24T01:45:26;11.98;74.03
68801;SHT31;55784;50.734;7.086;2023-04-24T01:47:52;11.91;72.98
68801;SHT31;55784;50.734;7.086;2023-04-24T01:50:18;11.89;72.79
68801;SHT31;55784;50.734;7.086;2023-04-24T01:52:43;11.83;72.09
68801;SHT31;55784;50.734;7.086;2023-04-24T01:55:09;11.81;72.38
68801;SHT31;55784;50.734;7.086;2023-04-24T01:57:35;11.71;72.41
68801;SHT31;55784;50.734;7.086;2023-04-24T02:00:01;11.68;72.92
68801;SHT31;55784;50.734;7.086;2023-04-24T02:02:26;11.57;73.52
68801;SHT31;55784;50.734;7.086;2023-04-24T02:04:55;11.58;73.78
68801;SHT31;55784;50.734;7.086;2023-04-24T02:07:20;11.54;72.80
68801;SHT31;55784;50.734;7.086;2023-04-24T02:09:46;11.47;72.44
68801;SHT31;55784;50.734;7.086;2023-04-24T02:12:11;11.38;71.49
68801;SHT31;55784;50.734;7.086;2023-04-24T02:14:37;11.31;71.15
68801;SHT31;55784;50.734;7.086;2023-04-24T02:17:02;11.27;70.91
68801;SHT31;55784;50.734;7.086;2023-04-24T02:19:27;11.27;71.05
68801;SHT31;55784;50.734;7.086;2023-04-24T02:21:53;11.21;71.10
68801;SHT31;55784;50.734;7.086;2023-04-24T02:34:14;10.66;72.46
68801;SHT31;55784;50.734;7.086;2023-04-24T02:36:39;10.52;73.00
68801;SHT31;55784;50.734;7.086;2023-04-24T02:39:04;10.41;73.21
68801;SHT31;55784;50.734;7.086;2023-04-24T02:41:30;10.31;73.46
68801;SHT31;55784;50.734;7.086;2023-04-24T02:43:58;10.24;73.79
68801;SHT31;55784;50.734;7.086;2023-04-24T02:46:23;10.16;74.15
68801;SHT31;55784;50.734;7.086;2023-04-24T02:48:48;10.09;74.57
68801;SHT31;55784;50.734;7.086;2023-04-24T02:51:14;10.05;74.59
68801;SHT31;55784;50.734;7.086;2023-04-24T02:53:39;9.94;74.73
68801;SHT31;55784;50.734;7.086;2023-04-24T02:56:05;9.90;74.81
68801;SHT31;55784;50.734;7.086;2023-04-24T02:58:30;9.84;75.17
68801;SHT31;55784;50.734;7.086;2023-04-24T03:00:55;9.78;75.33
68801;SHT31;55784;50.734;7.086;2023-04-24T03:03:21;9.73;75.63
68801;SHT31;55784;50.734;7.086;2023-04-24T03:05:47;9.73;75.69
68801;SHT31;55784;50.734;7.086;2023-04-24T03:08:12;9.71;75.50
68801;SHT31;55784;50.734;7.086;2023-04-24T03:10:37;9.70;75.48
68801;SHT31;55784;50.734;7.086;2023-04-24T03:13:03;9.67;75.47
68801;SHT31;55784;50.734;7.086;2023-04-24T03:15:28;9.69;75.23
68801;SHT31;55784;50.734;7.086;2023-04-24T03:17:54;9.67;75.08
68801;SHT31;55784;50.734;7.086;2023-04-24T03:20:20;9.63;75.13
68801;SHT31;55784;50.734;7.086;2023-04-24T03:22:45;9.60;75.16
68801;SHT31;55784;50.734;7.086;2023-04-24T03:25:10;9.55;75.24
68801;SHT31;55784;50.734;7.086;2023-04-24T03:27:36;9.54;75.23
68801;SHT31;55784;50.734;7.086;2023-04-24T03:30:01;9.53;75.32
68801;SHT31;55784;50.734;7.086;2023-04-24T03:32:27;9.57;75.06
68801;SHT31;55784;50.734;7.086;2023-04-24T03:34:52;9.54;74.84
68801;SHT31;55784;50.734;7.086;2023-04-24T03:37:18;9.51;75.11
68801;SHT31;55784;50.734;7.086;2023-04-24T03:39:43;9.50;75.31
68801;SHT31;55784;50.734;7.086;2023-04-24T03:42:09;9.44;75.28
68801;SHT31;55784;50.734;7.086;2023-04-24T03:44:35;9.44;75.41
68801;SHT31;55784;50.734;7.086;2023-04-24T03:47:01;9.43;75.46
68801;SHT31;55784;50.734;7.086;2023-04-24T03:49:26;9.40;75.16
68801;SHT31;55784;50.734;7.086;2023-04-24T03:51:51;9.37;75.38
68801;SHT31;55784;50.734;7.086;2023-04-24T03:54:18;9.32;75.70
68801;SHT31;55784;50.734;7.086;2023-04-24T03:56:43;9.26;76.07
68801;SHT31;55784;50.734;7.086;2023-04-24T03:59:08;9.20;76.30
68801;SHT31;55784;50.734;7.086;2023-04-24T04:01:34;9.18;76.34
68801;SHT31;55784;50.734;7.086;2023-04-24T04:04:08;9.23;76.28
68801;SHT31;55784;50.734;7.086;2023-04-24T04:06:33;9.18;76.57
68801;SHT31;55784;50.734;7.086;2023-04-24T04:08:59;9.15;76.68
68801;SHT31;55784;50.734;7.086;2023-04-24T04:11:25;9.12;76.71
68801;SHT31;55784;50.734;7.086;2023-04-24T04:13:50;9.13;76.87
68801;SHT31;55784;50.734;7.086;2023-04-24T04:16:16;9.20;76.71
68801;SHT31;55784;50.734;7.086;2023-04-24T04:18:44;9.20;76.66
68801;SHT31;55784;50.734;7.086;2023-04-24T04:21:10;9.18;76.78
68801;SHT31;55784;50.734;7.086;2023-04-24T04:23:35;9.12;76.85
68801;SHT31;55784;50.734;7.086;2023-04-24T04:26:01;9.12;76.99
68801;SHT31;55784;50.734;7.086;2023-04-24T04:28:28;9.02;77.22
68801;SHT31;55784;50.734;7.086;2023-04-24T04:30:53;9.03;77.57
68801;SHT31;55784;50.734;7.086;2023-04-24T04:33:20;9.03;77.40
68801;SHT31;55784;50.734;7.086;2023-04-24T04:35:45;9.13;77.33
68801;SHT31;55784;50.734;7.086;2023-04-24T04:38:14;9.24;77.06
68801;SHT31;55784;50.734;7.086;2023-04-24T04:40:40;9.34;76.78
68801;SHT31;55784;50.734;7.086;2023-04-24T04:43:05;9.44;76.53
68801;SHT31;55784;50.734;7.086;2023-04-24T04:45:31;9.46;76.32
68801;SHT31;55784;50.734;7.086;2023-04-24T04:47:58;9.48;76.16
68801;SHT31;55784;50.734;7.086;2023-04-24T04:50:26;9.55;76.21
68801;SHT31;55784;50.734;7.086;2023-04-24T04:52:52;9.60;76.00
68801;SHT31;55784;50.734;7.086;2023-04-24T04:55:17;9.70;75.93
68801;SHT31;55784;50.734;7.086;2023-04-24T04:57:43;9.80;75.48
68801;SHT31;55784;50.734;7.086;2023-04-24T05:00:09;9.91;74.84
68801;SHT31;55784;50.734;7.086;2023-04-24T05:02:35;9.97;74.59
68801;SHT31;55784;50.734;7.086;2023-04-24T05:05:01;10.11;74.31
68801;SHT31;55784;50.734;7.086;2023-04-24T05:07:26;10.14;74.06
68801;SHT31;55784;50.734;7.086;2023-04-24T05:09:51;10.15;74.09
68801;SHT31;55784;50.734;7.086;2023-04-24T05:12:17;10.21;74.08
68801;SHT31;55784;50.734;7.086;2023-04-24T05:14:42;10.25;74.04
68801;SHT31;55784;50.734;7.086;2023-04-24T05:17:08;10.29;74.00
68801;SHT31;55784;50.734;7.086;2023-04-24T05:19:33;10.42;73.62
68801;SHT31;55784;50.734;7.086;2023-04-24T05:22:01;10.50;73.20
68801;SHT31;55784;50.734;7.086;2023-04-24T05:24:28;10.62;73.12
68801;SHT31;55784;50.734;7.086;2023-04-24T05:26:53;10.75;72.86
68801;SHT31;55784;50.734;7.086;2023-04-24T05:29:19;10.81;72.47
68801;SHT31;55784;50.734;7.086;2023-04-24T05:31:44;10.79;72.50
68801;SHT31;55784;50.734;7.086;2023-04-24T05:34:10;10.84;72.39
68801;SHT31;55784;50.734;7.086;2023-04-24T05:36:35;10.76;72.54
68801;SHT31;55784;50.734;7.086;2023-04-24T05:39:00;10.76;72.58
68801;SHT31;55784;50.734;7.086;2023-04-24T05:41:26;10.80;72.70
68801;SHT31;55784;50.734;7.086;2023-04-24T05:43:51;10.77;72.66
68801;SHT31;55784;50.734;7.086;2023-04-24T05:46:16;10.83;72.76
68801;SHT31;55784;50.734;7.086;2023-04-24T05:48:42;10.84;72.74
68801;SHT31;55784;50.734;7.086;2023-04-24T05:51:09;10.87;73.12
68801;SHT31;55784;50.734;7.086;2023-04-24T05:53:34;10.83;72.74
68801;SHT31;55784;50.734;7.086;2023-04-24T05:56:00;10.95;72.68
68801;SHT31;55784;50.734;7.086;2023-04-24T05:58:25;10.96;72.62
68801;SHT31;55784;50.734;7.086;2023-04-24T06:00:51;10.87;72.57
68801;SHT31;55784;50.734;7.086;2023-04-24T06:03:17;10.97;72.90
68801;SHT31;55784;50.734;7.086;2023-04-24T06:05:46;11.03;72.55
68801;SHT31;55784;50.734;7.086;2023-04-24T06:08:58;11.00;73.82
68801;SHT31;55784;50.734;7.086;2023-04-24T06:12:07;11.03;73.94
68801;SHT31;55784;50.734;7.086;2023-04-24T06:21:41;10.93;74.36
68801;SHT31;55784;50.734;7.086;2023-04-24T06:25:01;10.99;73.88
68801;SHT31;55784;50.734;7.086;2023-04-24T06:28:02;11.19;74.06
68801;SHT31;55784;50.734;7.086;2023-04-24T06:34:17;11.34;74.04
68801;SHT31;55784;50.734;7.086;2023-04-24T06:39:55;11.31;73.11
68801;SHT31;55784;50.734;7.086;2023-04-24T06:42:44;11.35;72.81
68801;SHT31;55784;50.734;7.086;2023-04-24T06:48:05;11.35;74.56
68801;SHT31;55784;50.734;7.086;2023-04-24T06:50:37;11.37;75.52
68801;SHT31;55784;50.734;7.086;2023-04-24T06:53:19;11.26;75.10
68801;SHT31;55784;50.734;7.086;2023-04-24T06:56:17;11.24;75.67
68801;SHT31;55784;50.734;7.086;2023-04-24T06:59:11;11.21;75.93
68801;SHT31;55784;50.734;7.086;2023-04-24T07:02:12;11.24;77.10
68801;SHT31;55784;50.734;7.086;2023-04-24T07:25:58;11.37;77.91
68801;SHT31;55784;50.734;7.086;2023-04-24T07:28:23;11.42;77.96
68801;SHT31;55784;50.734;7.086;2023-04-24T07:30:49;11.40;77.43
68801;SHT31;55784;50.734;7.086;2023-04-24T07:33:15;11.37;77.62
68801;SHT31;55784;50.734;7.086;2023-04-24T07:41:56;11.21;78.42
68801;SHT31;55784;50.734;7.086;2023-04-24T07:52:39;11.07;79.95
68801;SHT31;55784;50.734;7.086;2023-04-24T08:09:43;10.99;80.93
68801;SHT31;55784;50.734;7.086;2023-04-24T08:16:17;10.66;81.84
68801;SHT31;55784;50.734;7.086;2023-04-24T08:19:02;10.56;82.27
68801;SHT31;55784;50.734;7.086;2023-04-24T08:21:28;10.53;82.69
68801;SHT31;55784;50.734;7.086;2023-04-24T08:23:53;10.44;83.46
68801;SHT31;55784;50.734;7.086;2023-04-24T08:26:18;10.31;83.57
68801;SHT31;55784;50.734;7.086;2023-04-24T08:28:47;10.16;84.67
68801;SHT31;55784;50.734;7.086;2023-04-24T08:31:13;10.12;86.14
68801;SHT31;55784;50.734;7.086;2023-04-24T08:33:39;10.12;85.09
68801;SHT31;55784;50.734;7.086;2023-04-24T08:36:06;9.98;83.43
68801;SHT31;55784;50.734;7.086;2023-04-24T08:38:35;9.99;84.63
68801;SHT31;55784;50.734;7.086;2023-04-24T08:41:01;9.77;84.51
68801;SHT31;55784;50.734;7.086;2023-04-24T08:43:27;9.64;83.10
68801;SHT31;55784;50.734;7.086;2023-04-24T08:45:53;9.37;84.73
68801;SHT31;55784;50.734;7.086;2023-04-24T08:48:22;9.10;84.30
68801;SHT31;55784;50.734;7.086;2023-04-24T08:50:51;8.75;86.26
68801;SHT31;55784;50.734;7.086;2023-04-24T08:53:17;8.71;87.50
68801;SHT31;55784;50.734;7.086;2023-04-24T08:55:43;8.62;88.25
68801;SHT31;55784;50.734;7.086;2023-04-24T08:58:15;8.62;88.41
68801;SHT31;55784;50.734;7.086;2023-04-24T09:00:42;8.62;89.30
68801;SHT31;55784;50.734;7.086;2023-04-24T09:03:16;8.75;87.95
68801;SHT31;55784;50.734;7.086;2023-04-24T09:05:46;8.83;89.19
68801;SHT31;55784;50.734;7.086;2023-04-24T09:08:16;8.98;89.27
68801;SHT31;55784;50.734;7.086;2023-04-24T09:10:43;8.89;88.18
68801;SHT31;55784;50.734;7.086;2023-04-24T09:13:09;8.99;88.73
68801;SHT31;55784;50.734;7.086;2023-04-24T09:15:36;9.00;88.82
68801;SHT31;55784;50.734;7.086;2023-04-24T09:18:02;9.12;89.30
68801;SHT31;55784;50.734;7.086;2023-04-24T09:20:27;9.10;88.64
68801;SHT31;55784;50.734;7.086;2023-04-24T09:22:57;9.08;89.65
68801;SHT31;55784;50.734;7.086;2023-04-24T09:25:35;8.92;89.30
68801;SHT31;55784;50.734;7.086;2023-04-24T09:28:04;8.82;90.36
68801;SHT31;55784;50.734;7.086;2023-04-24T09:30:31;8.78;91.24
68801;SHT31;55784;50.734;7.086;2023-04-24T09:33:12;8.83;91.48
68801;SHT31;55784;50.734;7.086;2023-04-24T09:35:40;8.73;90.78
68801;SHT31;55784;50.734;7.086;2023-04-24T09:38:06;8.86;91.95
68801;SHT31;55784;50.734;7.086;2023-04-24T09:40:34;8.96;91.12
68801;SHT31;55784;50.734;7.086;2023-04-24T09:42:59;8.99;91.12
68801;SHT31;55784;50.734;7.086;2023-04-24T09:45:28;9.00;90.07
68801;SHT31;55784;50.734;7.086;2023-04-24T09:47:59;9.00;89.96
68801;SHT31;55784;50.734;7.086;2023-04-24T09:50:25;9.18;88.63
68801;SHT31;55784;50.734;7.086;2023-04-24T09:52:58;9.26;86.92
68801;SHT31;55784;50.734;7.086;2023-04-24T09:55:24;9.37;86.14
68801;SHT31;55784;50.734;7.086;2023-04-24T09:57:52;9.54;86.59
68801;SHT31;55784;50.734;7.086;2023-04-24T10:00:32;9.63;85.71
68801;SHT31;55784;50.734;7.086;2023-04-24T10:03:00;9.78;85.89
68801;SHT31;55784;50.734;7.086;2023-04-24T10:05:31;9.70;85.02
68801;SHT31;55784;50.734;7.086;2023-04-24T10:08:02;9.71;85.12
68801;SHT31;55784;50.734;7.086;2023-04-24T10:10:44;9.97;85.62
68801;SHT31;55784;50.734;7.086;2023-04-24T10:13:12;10.01;85.78
68801;SHT31;55784;50.734;7.086;2023-04-24T10:15:41;10.06;85.34
68801;SHT31;55784;50.734;7.086;2023-04-24T10:18:08;9.95;85.06
68801;SHT31;55784;50.734;7.086;2023-04-24T10:20:37;9.75;85.64
68801;SHT31;55784;50.734;7.086;2023-04-24T10:23:03;9.83;88.11
68801;SHT31;55784;50.734;7.086;2023-04-24T10:25:34;10.12;86.86
68801;SHT31;55784;50.734;7.086;2023-04-24T10:28:01;10.19;86.36
68801;SHT31;55784;50.734;7.086;2023-04-24T10:30:33;10.11;85.20
68801;SHT31;55784;50.734;7.086;2023-04-24T10:33:01;10.45;84.95
68801;SHT31;55784;50.734;7.086;2023-04-24T10:35:26;10.89;83.90
68801;SHT31;55784;50.734;7.086;2023-04-24T10:38:02;10.90;83.68
68801;SHT31;55784;50.734;7.086;2023-04-24T10:40:34;11.17;83.13
68801;SHT31;55784;50.734;7.086;2023-04-24T10:43:02;11.09;80.59
68801;SHT31;55784;50.734;7.086;2023-04-24T10:45:27;11.06;82.05
68801;SHT31;55784;50.734;7.086;2023-04-24T10:48:09;10.96;82.59
68801;SHT31;55784;50.734;7.086;2023-04-24T10:50:46;10.77;83.03
68801;SHT31;55784;50.734;7.086;2023-04-24T10:53:13;10.84;82.37
68801;SHT31;55784;50.734;7.086;2023-04-24T10:55:48;11.04;81.09
68801;SHT31;55784;50.734;7.086;2023-04-24T10:58:14;11.07;81.35
68801;SHT31;55784;50.734;7.086;2023-04-24T11:00:42;10.95;82.66
68801;SHT31;55784;50.734;7.086;2023-04-24T11:03:29;10.90;81.42
68801;SHT31;55784;50.734;7.086;2023-04-24T11:06:02;10.83;83.32
68801;SHT31;55784;50.734;7.086;2023-04-24T11:08:38;10.69;83.18
68801;SHT31;55784;50.734;7.086;2023-04-24T11:11:24;10.49;82.76
68801;SHT31;55784;50.734;7.086;2023-04-24T11:16:32;10.83;82.60
68801;SHT31;55784;50.734;7.086;2023-04-24T11:21:58;11.44;80.96
68801;SHT31;55784;50.734;7.086;2023-04-24T11:29:22;11.85;80.36
68801;SHT31;55784;50.734;7.086;2023-04-24T11:31:52;12.33;78.03
68801;SHT31;55784;50.734;7.086;2023-04-24T11:34:21;12.66;77.61
68801;SHT31;55784;50.734;7.086;2023-04-24T11:36:47;13.00;75.71
68801;SHT31;55784;50.734;7.086;2023-04-24T11:39:13;13.45;74.58
68801;SHT31;55784;50.734;7.086;2023-04-24T11:41:39;13.47;75.20
68801;SHT31;55784;50.734;7.086;2023-04-24T11:44:06;13.39;74.38
68801;SHT31;55784;50.734;7.086;2023-04-24T11:46:32;13.37;72.97
68801;SHT31;55784;50.734;7.086;2023-04-24T11:48:58;12.74;74.11
68801;SHT31;55784;50.734;7.086;2023-04-24T11:51:25;12.30;73.75
68801;SHT31;55784;50.734;7.086;2023-04-24T11:53:52;12.34;73.47
68801;SHT31;55784;50.734;7.086;2023-04-24T11:56:19;12.49;73.30
68801;SHT31;55784;50.734;7.086;2023-04-24T11:58:45;12.54;71.66
68801;SHT31;55784;50.734;7.086;2023-04-24T12:01:11;12.54;70.22
68801;SHT31;55784;50.734;7.086;2023-04-24T12:03:36;12.72;72.21
68801;SHT31;55784;50.734;7.086;2023-04-24T12:06:06;13.01;73.18
68801;SHT31;55784;50.734;7.086;2023-04-24T12:08:33;13.04;72.44
68801;SHT31;55784;50.734;7.086;2023-04-24T12:11:00;13.19;71.86
68801;SHT31;55784;50.734;7.086;2023-04-24T12:13:26;13.35;72.60
68801;SHT31;55784;50.734;7.086;2023-04-24T12:15:52;12.95;72.15
68801;SHT31;55784;50.734;7.086;2023-04-24T12:18:17;12.86;72.71
68801;SHT31;55784;50.734;7.086;2023-04-24T12:20:43;13.12;71.94
68801;SHT31;55784;50.734;7.086;2023-04-24T12:23:08;13.38;72.17
68801;SHT31;55784;50.734;7.086;2023-04-24T12:25:34;13.08;72.33
68801;SHT31;55784;50.734;7.086;2023-04-24T12:30:32;13.17;73.00
68801;SHT31;55784;50.734;7.086;2023-04-24T12:32:59;13.48;72.67
68801;SHT31;55784;50.734;7.086;2023-04-24T12:35:28;13.80;71.19
68801;SHT31;55784;50.734;7.086;2023-04-24T12:37:53;13.29;71.42
68801;SHT31;55784;50.734;7.086;2023-04-24T12:40:20;13.10;69.79
68801;SHT31;55784;50.734;7.086;2023-04-24T12:42:50;13.10;70.97
68801;SHT31;55784;50.734;7.086;2023-04-24T12:45:17;13.25;70.17
68801;SHT31;55784;50.734;7.086;2023-04-24T12:47:44;13.59;69.17
68801;SHT31;55784;50.734;7.086;2023-04-24T12:50:14;14.06;67.35
68801;SHT31;55784;50.734;7.086;2023-04-24T12:52:41;14.50;66.78
68801;SHT31;55784;50.734;7.086;2023-04-24T12:55:07;14.27;67.96
68801;SHT31;55784;50.734;7.086;2023-04-24T12:57:34;13.98;66.72
68801;SHT31;55784;50.734;7.086;2023-04-24T13:00:00;14.03;66.63
68801;SHT31;55784;50.734;7.086;2023-04-24T13:02:27;14.06;66.82
68801;SHT31;55784;50.734;7.086;2023-04-24T13:04:54;14.10;66.42
68801;SHT31;55784;50.734;7.086;2023-04-24T13:07:20;13.83;65.69
68801;SHT31;55784;50.734;7.086;2023-04-24T13:09:47;13.58;65.23
68801;SHT31;55784;50.734;7.086;2023-04-24T13:12:13;13.44;65.55
68801;SHT31;55784;50.734;7.086;2023-04-24T13:14:39;13.61;65.39
68801;SHT31;55784;50.734;7.086;2023-04-24T13:17:05;13.76;64.15
68801;SHT31;55784;50.734;7.086;2023-04-24T13:19:39;13.75;62.74
68801;SHT31;55784;50.734;7.086;2023-04-24T13:22:05;13.90;62.93
68801;SHT31;55784;50.734;7.086;2023-04-24T13:24:32;13.96;62.72
68801;SHT31;55784;50.734;7.086;2023-04-24T13:26:58;14.27;61.86
68801;SHT31;55784;50.734;7.086;2023-04-24T13:29:23;14.36;61.85
68801;SHT31;55784;50.734;7.086;2023-04-24T13:31:53;14.48;61.57
68801;SHT31;55784;50.734;7.086;2023-04-24T13:34:24;14.63;61.86
68801;SHT31;55784;50.734;7.086;2023-04-24T13:36:51;14.08;62.54
68801;SHT31;55784;50.734;7.086;2023-04-24T13:39:17;14.13;63.41
68801;SHT31;55784;50.734;7.086;2023-04-24T13:41:42;14.43;62.71
68801;SHT31;55784;50.734;7.086;2023-04-24T13:44:08;14.72;61.62
68801;SHT31;55784;50.734;7.086;2023-04-24T13:46:33;14.98;61.20
68801;SHT31;55784;50.734;7.086;2023-04-24T13:48:59;14.71;60.81
68801;SHT31;55784;50.734;7.086;2023-04-24T13:51:25;14.54;62.14
68801;SHT31;55784;50.734;7.086;2023-04-24T13:53:52;14.54;63.28
68801;SHT31;55784;50.734;7.086;2023-04-24T13:56:18;14.82;62.13
68801;SHT31;55784;50.734;7.086;2023-04-24T13:58:43;14.48;62.21
68801;SHT31;55784;50.734;7.086;2023-04-24T14:01:08;13.89;64.22
68801;SHT31;55784;50.734;7.086;2023-04-24T14:03:34;13.75;65.56
68801;SHT31;55784;50.734;7.086;2023-04-24T14:05:59;13.38;66.60
68801;SHT31;55784;50.734;7.086;2023-04-24T14:08:24;13.21;67.87
68801;SHT31;55784;50.734;7.086;2023-04-24T14:10:50;13.12;69.09
68801;SHT31;55784;50.734;7.086;2023-04-24T14:13:16;12.86;70.68
68801;SHT31;55784;50.734;7.086;2023-04-24T14:15:41;11.86;96.02
68801;SHT31;55784;50.734;7.086;2023-04-24T14:18:07;11.64;85.23
68801;SHT31;55784;50.734;7.086;2023-04-24T14:20:32;11.86;83.05
68801;SHT31;55784;50.734;7.086;2023-04-24T14:22:57;11.88;78.51
68801;SHT31;55784;50.734;7.086;2023-04-24T14:25:24;12.26;78.13
68801;SHT31;55784;50.734;7.086;2023-04-24T14:27:50;12.30;77.85
68801;SHT31;55784;50.734;7.086;2023-04-24T14:30:15;12.47;74.88
68801;SHT31;55784;50.734;7.086;2023-04-24T14:32:41;12.46;71.33
68801;SHT31;55784;50.734;7.086;2023-04-24T14:35:07;12.57;73.43
68801;SHT31;55784;50.734;7.086;2023-04-24T14:37:32;12.64;71.01
68801;SHT31;55784;50.734;7.086;2023-04-24T14:39:58;12.72;70.45
68801;SHT31;55784;50.734;7.086;2023-04-24T14:42:23;12.79;71.14
68801;SHT31;55784;50.734;7.086;2023-04-24T14:44:49;13.10;70.18
68801;SHT31;55784;50.734;7.086;2023-04-24T14:47:15;13.19;68.34
68801;SHT31;55784;50.734;7.086;2023-04-24T14:49:42;13.59;68.21
68801;SHT31;55784;50.734;7.086;2023-04-24T14:52:09;13.83;66.74
68801;SHT31;55784;50.734;7.086;2023-04-24T14:54:34;13.90;65.72
68801;SHT31;55784;50.734;7.086;2023-04-24T14:56:59;13.87;65.05
68801;SHT31;55784;50.734;7.086;2023-04-24T14:59:27;13.95;65.09
68801;SHT31;55784;50.734;7.086;2023-04-24T15:01:52;13.95;64.52
68801;SHT31;55784;50.734;7.086;2023-04-24T15:04:22;13.83;64.77
68801;SHT31;55784;50.734;7.086;2023-04-24T15:06:48;13.78;62.91
68801;SHT31;55784;50.734;7.086;2023-04-24T15:09:14;13.58;61.60
68801;SHT31;55784;50.734;7.086;2023-04-24T15:11:40;13.54;61.89
68801;SHT31;55784;50.734;7.086;2023-04-24T15:14:05;13.59;61.79
68801;SHT31;55784;50.734;7.086;2023-04-24T15:16:31;13.82;61.79
68801;SHT31;55784;50.734;7.086;2023-04-24T15:18:57;13.62;62.14
68801;SHT31;55784;50.734;7.086;2023-04-24T15:21:22;13.75;61.08
68801;SHT31;55784;50.734;7.086;2023-04-24T15:23:48;13.83;61.97
68801;SHT31;55784;50.734;7.086;2023-04-24T15:26:13;13.96;61.80
68801;SHT31;55784;50.734;7.086;2023-04-24T15:28:39;13.89;60.38
68801;SHT31;55784;50.734;7.086;2023-04-24T15:31:04;13.86;60.43
68801;SHT31;55784;50.734;7.086;2023-04-24T15:33:30;14.05;60.08
68801;SHT31;55784;50.734;7.086;2023-04-24T15:35:55;13.75;60.39
68801;SHT31;55784;50.734;7.086;2023-04-24T15:38:20;13.73;59.70
68801;SHT31;55784;50.734;7.086;2023-04-24T15:40:46;13.86;60.50
68801;SHT31;55784;50.734;7.086;2023-04-24T15:43:11;13.90;60.75
68801;SHT31;55784;50.734;7.086;2023-04-24T15:45:36;13.65;60.25
68801;SHT31;55784;50.734;7.086;2023-04-24T15:48:02;13.61;60.03
68801;SHT31;55784;50.734;7.086;2023-04-24T15:50:28;13.70;60.35
68801;SHT31;55784;50.734;7.086;2023-04-24T15:52:53;13.90;60.13
68801;SHT31;55784;50.734;7.086;2023-04-24T15:55:18;13.87;60.35
68801;SHT31;55784;50.734;7.086;2023-04-24T15:57:44;13.69;61.05
68801;SHT31;55784;50.734;7.086;2023-04-24T16:00:12;13.66;61.25
68801;SHT31;55784;50.734;7.086;2023-04-24T16:02:38;13.76;59.64
68801;SHT31;55784;50.734;7.086;2023-04-24T16:05:16;13.92;59.16
68801;SHT31;55784;50.734;7.086;2023-04-24T16:07:43;13.90;59.15
68801;SHT31;55784;50.734;7.086;2023-04-24T16:10:09;14.02;58.74
68801;SHT31;55784;50.734;7.086;2023-04-24T16:12:35;14.02;59.26
68801;SHT31;55784;50.734;7.086;2023-04-24T16:15:00;13.93;59.48
68801;SHT31;55784;50.734;7.086;2023-04-24T16:17:26;13.80;59.83
68801;SHT31;55784;50.734;7.086;2023-04-24T16:20:09;13.85;59.81
68801;SHT31;55784;50.734;7.086;2023-04-24T16:22:50;13.62;60.66
68801;SHT31;55784;50.734;7.086;2023-04-24T16:25:19;13.59;61.20
68801;SHT31;55784;50.734;7.086;2023-04-24T16:27:45;13.48;61.08
68801;SHT31;55784;50.734;7.086;2023-04-24T16:30:26;13.39;61.92
68801;SHT31;55784;50.734;7.086;2023-04-24T16:32:51;13.38;61.65
68801;SHT31;55784;50.734;7.086;2023-04-24T16:35:25;13.47;61.71
68801;SHT31;55784;50.734;7.086;2023-04-24T16:37:51;13.39;62.26
68801;SHT31;55784;50.734;7.086;2023-04-24T16:40:17;13.32;62.83
68801;SHT31;55784;50.734;7.086;2023-04-24T16:42:43;13.39;62.36
68801;SHT31;55784;50.734;7.086;2023-04-24T16:45:19;13.49;62.60
68801;SHT31;55784;50.734;7.086;2023-04-24T16:47:44;13.54;62.13
68801;SHT31;55784;50.734;7.086;2023-04-24T16:50:10;13.39;61.88
68801;SHT31;55784;50.734;7.086;2023-04-24T16:52:35;13.29;62.00
68801;SHT31;55784;50.734;7.086;2023-04-24T16:55:01;13.25;61.78
68801;SHT31;55784;50.734;7.086;2023-04-24T16:57:26;13.17;62.22
68801;SHT31;55784;50.734;7.086;2023-04-24T16:59:52;13.12;62.85
68801;SHT31;55784;50.734;7.086;2023-04-24T17:02:17;13.22;62.78
68801;SHT31;55784;50.734;7.086;2023-04-24T17:04:43;13.14;61.54
68801;SHT31;55784;50.734;7.086;2023-04-24T17:07:08;13.14;62.58
68801;SHT31;55784;50.734;7.086;2023-04-24T17:09:33;12.97;62.76
68801;SHT31;55784;50.734;7.086;2023-04-24T17:11:59;12.84;63.35